createdAt,value
2023-01-04T00:00:07.461Z,9.40
2023-01-04T00:01:07.375Z,9.60
2023-01-04T00:02:07.511Z,8.70
2023-01-04T00:03:07.556Z,9.40
2023-01-04T00:04:07.404Z,8.30
2023-01-04T00:05:07.312Z,9.60
2023-01-04T00:06:07.364Z,9.40
2023-01-04T00:07:07.284Z,8.50
2023-01-04T00:08:07.267Z,9.70
2023-01-04T00:09:07.255Z,9.20
2023-01-04T00:10:07.250Z,9.40
2023-01-04T00:11:07.232Z,9.50
2023-01-04T00:12:07.209Z,9.40
2023-01-04T00:13:07.201Z,9.50
2023-01-04T00:14:07.231Z,9.50
2023-01-04T00:15:07.168Z,9.10
2023-01-04T00:16:08.081Z,9.10
2023-01-04T00:17:07.140Z,9.10
2023-01-04T00:18:07.128Z,7.80
2023-01-04T00:19:07.112Z,9.00
2023-01-04T00:20:07.094Z,8.70
2023-01-04T00:21:07.082Z,8.50
2023-01-04T00:22:07.082Z,8.30
2023-01-04T00:23:07.069Z,8.90
2023-01-04T00:24:07.043Z,9.20
2023-01-04T00:25:07.033Z,9.10
2023-01-04T00:26:07.009Z,9.40
2023-01-04T00:27:06.997Z,9.40
2023-01-04T00:28:06.984Z,9.40
2023-01-04T00:29:06.989Z,9.40
2023-01-04T00:30:06.951Z,9.20
2023-01-04T00:31:06.989Z,9.60
2023-01-04T00:32:06.921Z,8.60
2023-01-04T00:33:06.908Z,10.60
2023-01-04T00:34:06.941Z,9.20
2023-01-04T00:35:06.882Z,9.10
2023-01-04T00:36:06.883Z,8.90
2023-01-04T00:37:06.854Z,8.70
2023-01-04T00:38:06.858Z,9.00
2023-01-04T00:39:06.827Z,8.60
2023-01-04T00:40:06.811Z,9.00
2023-01-04T00:41:06.797Z,7.80
2023-01-04T00:42:06.800Z,7.70
2023-01-04T00:43:06.765Z,8.90
2023-01-04T00:44:06.752Z,7.30
2023-01-04T00:45:06.739Z,8.30
2023-01-04T00:46:06.793Z,7.10
2023-01-04T00:47:06.712Z,8.30
2023-01-04T00:48:06.696Z,8.50
2023-01-04T00:49:06.707Z,8.00
2023-01-04T00:50:06.668Z,8.10
2023-01-04T00:51:06.654Z,7.70
2023-01-04T00:52:06.640Z,8.50
2023-01-04T00:53:06.628Z,8.10
2023-01-04T00:54:06.625Z,7.30
2023-01-04T00:55:06.600Z,7.10
2023-01-04T00:56:06.579Z,7.60
2023-01-04T00:57:06.569Z,7.40
2023-01-04T00:58:06.551Z,7.10
2023-01-04T00:59:06.547Z,7.10
2023-01-04T01:00:06.528Z,7.20
2023-01-04T01:01:06.701Z,6.90
2023-01-04T01:02:06.729Z,7.00
2023-01-04T01:03:06.785Z,7.30
2023-01-04T01:04:06.534Z,6.70
2023-01-04T01:05:06.454Z,6.90
2023-01-04T01:06:06.446Z,7.40
2023-01-04T01:07:06.425Z,7.60
2023-01-04T01:09:06.394Z,7.90
2023-01-04T01:10:06.410Z,8.50
2023-01-04T01:11:06.366Z,8.60
2023-01-04T01:12:06.359Z,8.40
2023-01-04T01:13:06.337Z,8.40
2023-01-04T01:14:06.335Z,9.40
2023-01-04T01:15:06.309Z,8.30
2023-01-04T01:16:06.447Z,8.80
2023-01-04T01:17:06.361Z,8.20
2023-01-04T01:18:06.267Z,8.10
2023-01-04T01:19:06.252Z,7.70
2023-01-04T01:20:06.240Z,7.50
2023-01-04T01:21:06.228Z,7.60
2023-01-04T01:22:06.217Z,8.10
2023-01-04T01:23:06.194Z,7.30
2023-01-04T01:24:06.191Z,7.00
2023-01-04T01:25:06.165Z,7.00
2023-01-04T01:26:06.177Z,6.80
2023-01-04T01:27:06.142Z,6.00
2023-01-04T01:28:06.124Z,6.40
2023-01-04T01:29:06.107Z,6.50
2023-01-04T01:30:06.095Z,6.20
2023-01-04T01:31:08.651Z,6.50
2023-01-04T01:32:06.083Z,6.60
2023-01-04T01:33:06.048Z,6.10
2023-01-04T01:34:06.037Z,6.10
2023-01-04T01:35:06.019Z,5.90
2023-01-04T01:36:06.014Z,6.40
2023-01-04T01:37:05.992Z,6.10
2023-01-04T01:38:06.026Z,6.70
2023-01-04T01:39:05.960Z,6.50
2023-01-04T01:40:05.963Z,5.70
2023-01-04T01:41:05.940Z,6.40
2023-01-04T01:42:05.939Z,6.40
2023-01-04T01:43:05.910Z,6.30
2023-01-04T01:44:05.892Z,6.50
2023-01-04T01:45:05.875Z,5.60
2023-01-04T01:46:05.930Z,6.30
2023-01-04T01:47:05.845Z,5.90
2023-01-04T01:48:05.838Z,6.30
2023-01-04T01:49:05.815Z,5.80
2023-01-04T01:50:05.947Z,6.30
2023-01-04T01:51:05.827Z,5.30
2023-01-04T01:52:05.824Z,5.80
2023-01-04T01:53:05.839Z,5.90
2023-01-04T01:54:05.776Z,6.00
2023-01-04T01:55:05.800Z,5.80
2023-01-04T01:56:05.769Z,5.60
2023-01-04T01:57:05.721Z,5.20
2023-01-04T01:58:05.710Z,5.70
2023-01-04T01:59:05.688Z,5.80
2023-01-04T02:00:05.670Z,5.80
2023-01-04T02:01:05.685Z,5.90
2023-01-04T02:02:05.777Z,5.40
2023-01-04T02:03:05.795Z,5.60
2023-01-04T02:04:05.745Z,5.20
2023-01-04T02:05:05.587Z,5.00
2023-01-04T02:06:05.593Z,5.30
2023-01-04T02:07:05.593Z,5.70
2023-01-04T02:08:05.544Z,5.30
2023-01-04T02:09:05.529Z,5.50
2023-01-04T02:10:05.520Z,5.10
2023-01-04T02:11:05.499Z,5.00
2023-01-04T02:12:05.489Z,5.60
2023-01-04T02:13:05.474Z,5.70
2023-01-04T02:14:05.475Z,5.20
2023-01-04T02:15:05.442Z,5.30
2023-01-04T02:16:05.557Z,5.20
2023-01-04T02:17:05.427Z,5.60
2023-01-04T02:18:05.401Z,5.00
2023-01-04T02:19:05.381Z,5.40
2023-01-04T02:20:05.374Z,5.20
2023-01-04T02:21:05.359Z,5.10
2023-01-04T02:22:05.343Z,5.10
2023-01-04T02:23:05.329Z,5.70
2023-01-04T02:24:05.325Z,5.30
2023-01-04T02:25:05.298Z,4.70
2023-01-04T02:26:05.334Z,4.70
2023-01-04T02:27:05.271Z,5.10
2023-01-04T02:28:05.262Z,5.20
2023-01-04T02:29:05.238Z,5.20
2023-01-04T02:30:05.244Z,5.20
2023-01-04T02:31:05.263Z,5.20
2023-01-04T02:32:05.194Z,5.30
2023-01-04T02:33:05.195Z,5.40
2023-01-04T02:34:05.171Z,5.60
2023-01-04T02:35:05.156Z,5.30
2023-01-04T02:36:05.141Z,5.30
2023-01-04T02:37:05.175Z,5.10
2023-01-04T02:38:05.117Z,5.70
2023-01-04T02:39:05.104Z,5.00
2023-01-04T02:40:05.088Z,5.60
2023-01-04T02:41:05.062Z,5.70
2023-01-04T02:42:05.059Z,6.10
2023-01-04T02:43:05.040Z,5.60
2023-01-04T02:44:05.025Z,6.00
2023-01-04T02:45:05.021Z,5.30
2023-01-04T02:46:05.067Z,5.50
2023-01-04T02:47:05.032Z,4.60
2023-01-04T02:48:04.971Z,5.90
2023-01-04T02:49:04.951Z,5.90
2023-01-04T02:50:05.754Z,5.70
2023-01-04T02:51:04.922Z,5.50
2023-01-04T02:52:04.922Z,5.40
2023-01-04T02:53:04.893Z,5.80
2023-01-04T02:54:04.881Z,4.60
2023-01-04T02:55:04.860Z,5.30
2023-01-04T02:56:04.849Z,5.40
2023-01-04T02:57:06.089Z,5.00
2023-01-04T02:58:04.831Z,4.70
2023-01-04T02:59:04.805Z,5.30
2023-01-04T03:00:04.797Z,4.70
2023-01-04T03:01:04.776Z,4.80
2023-01-04T03:02:04.931Z,5.40
2023-01-04T03:03:04.879Z,5.20
2023-01-04T03:04:04.765Z,5.60
2023-01-04T03:05:04.718Z,5.20
2023-01-04T03:06:04.706Z,5.50
2023-01-04T03:07:04.710Z,5.60
2023-01-04T03:08:04.677Z,5.40
2023-01-04T03:09:04.663Z,5.50
2023-01-04T03:10:04.667Z,5.50
2023-01-04T03:11:04.652Z,5.60
2023-01-04T03:12:04.623Z,5.70
2023-01-04T03:13:04.603Z,5.40
2023-01-04T03:14:31.594Z,5.20
2023-01-04T03:15:04.573Z,6.20
2023-01-04T03:16:04.610Z,5.50
2023-01-04T03:17:04.569Z,5.20
2023-01-04T03:18:04.550Z,5.90
2023-01-04T03:19:04.531Z,5.60
2023-01-04T03:20:04.506Z,5.70
2023-01-04T03:21:04.486Z,6.00
2023-01-04T03:22:04.505Z,6.10
2023-01-04T03:23:04.466Z,6.10
2023-01-04T03:24:04.445Z,6.40
2023-01-04T03:25:04.428Z,6.10
2023-01-04T03:26:04.418Z,6.00
2023-01-04T03:27:04.402Z,5.90
2023-01-04T03:28:04.388Z,6.20
2023-01-04T03:29:04.374Z,6.20
2023-01-04T03:30:04.353Z,5.90
2023-01-04T03:31:04.385Z,6.70
2023-01-04T03:32:04.326Z,6.30
2023-01-04T03:33:04.323Z,5.80
2023-01-04T03:34:04.315Z,5.70
2023-01-04T03:35:04.287Z,5.80
2023-01-04T03:36:04.269Z,6.50
2023-01-04T03:37:04.259Z,5.40
2023-01-04T03:38:04.239Z,5.50
2023-01-04T03:39:04.228Z,5.90
2023-01-04T03:40:04.210Z,7.00
2023-01-04T03:41:04.198Z,5.50
2023-01-04T03:42:04.182Z,6.00
2023-01-04T03:43:04.174Z,5.80
2023-01-04T03:44:04.153Z,5.90
2023-01-04T03:45:09.717Z,6.10
2023-01-04T03:46:04.127Z,6.50
2023-01-04T03:47:04.177Z,5.50
2023-01-04T03:48:04.095Z,6.70
2023-01-04T03:49:04.084Z,6.30
2023-01-04T03:50:04.086Z,5.80
2023-01-04T03:51:04.059Z,5.80
2023-01-04T03:52:04.039Z,5.80
2023-01-04T03:53:04.025Z,6.40
2023-01-04T03:54:04.047Z,5.70
2023-01-04T03:55:03.996Z,6.00
2023-01-04T03:56:03.981Z,5.90
2023-01-04T03:57:03.971Z,6.00
2023-01-04T03:58:03.952Z,6.10
2023-01-04T03:59:03.936Z,6.20
2023-01-04T04:00:03.920Z,6.20
2023-01-04T04:01:04.131Z,6.00
2023-01-04T04:02:04.010Z,6.30
2023-01-04T04:03:03.879Z,6.00
2023-01-04T04:04:04.007Z,5.70
2023-01-04T04:05:03.853Z,6.20
2023-01-04T04:06:03.873Z,6.30
2023-01-04T04:07:03.823Z,5.60
2023-01-04T04:08:03.838Z,5.40
2023-01-04T04:09:03.793Z,6.50
2023-01-04T04:10:03.774Z,6.10
2023-01-04T04:11:03.765Z,6.20
2023-01-04T04:12:03.746Z,6.00
2023-01-04T04:13:03.736Z,6.60
2023-01-04T04:14:03.721Z,6.50
2023-01-04T04:15:03.711Z,6.10
2023-01-04T04:16:03.715Z,6.50
2023-01-04T04:17:03.762Z,6.00
2023-01-04T04:18:03.661Z,6.20
2023-01-04T04:19:08.540Z,6.60
2023-01-04T04:20:03.634Z,5.90
2023-01-04T04:21:03.619Z,6.00
2023-01-04T04:22:03.623Z,6.60
2023-01-04T04:23:03.602Z,6.30
2023-01-04T04:24:03.573Z,6.50
2023-01-04T04:25:03.753Z,6.70
2023-01-04T04:26:03.544Z,6.80
2023-01-04T04:27:03.534Z,6.80
2023-01-04T04:28:03.519Z,6.50
2023-01-04T04:29:03.506Z,6.40
2023-01-04T04:30:03.483Z,6.40
2023-01-04T04:31:03.473Z,5.50
2023-01-04T04:32:03.561Z,6.80
2023-01-04T04:33:03.446Z,6.10
2023-01-04T04:34:03.429Z,6.10
2023-01-04T04:35:03.423Z,6.40
2023-01-04T04:36:03.399Z,7.30
2023-01-04T04:37:03.387Z,6.40
2023-01-04T04:38:03.387Z,6.90
2023-01-04T04:39:03.367Z,6.50
2023-01-04T04:40:03.343Z,6.30
2023-01-04T04:41:03.328Z,6.60
2023-01-04T04:42:03.311Z,6.80
2023-01-04T04:43:03.309Z,6.70
2023-01-04T04:44:03.283Z,6.60
2023-01-04T04:45:03.275Z,6.60
2023-01-04T04:46:03.339Z,6.10
2023-01-04T04:47:03.240Z,5.90
2023-01-04T04:48:03.223Z,6.40
2023-01-04T04:49:03.212Z,6.00
2023-01-04T04:50:03.195Z,6.00
2023-01-04T04:51:03.185Z,6.50
2023-01-04T04:52:03.167Z,6.60
2023-01-04T04:53:03.163Z,6.90
2023-01-04T04:54:03.163Z,5.90
2023-01-04T04:55:03.123Z,6.40
2023-01-04T04:56:03.111Z,6.80
2023-01-04T04:57:03.097Z,7.00
2023-01-04T04:58:03.081Z,6.20
2023-01-04T04:59:03.067Z,6.80
2023-01-04T05:00:03.069Z,5.20
2023-01-04T05:01:03.102Z,5.80
2023-01-04T05:02:03.195Z,6.00
2023-01-04T05:03:03.230Z,6.00
2023-01-04T05:04:03.002Z,6.30
2023-01-04T05:05:03.001Z,6.40
2023-01-04T05:06:02.970Z,6.70
2023-01-04T05:07:07.515Z,6.70
2023-01-04T05:08:02.933Z,6.90
2023-01-04T05:09:03.124Z,7.20
2023-01-04T05:10:02.920Z,5.50
2023-01-04T05:11:02.892Z,6.50
2023-01-04T05:12:02.876Z,6.20
2023-01-04T05:13:02.869Z,6.10
2023-01-04T05:14:02.845Z,6.10
2023-01-04T05:15:02.837Z,6.10
2023-01-04T05:16:02.883Z,6.10
2023-01-04T05:17:02.975Z,6.30
2023-01-04T05:18:02.787Z,5.80
2023-01-04T05:19:02.797Z,5.90
2023-01-04T05:20:02.757Z,5.90
2023-01-04T05:21:02.817Z,5.90
2023-01-04T05:22:02.733Z,6.40
2023-01-04T05:23:02.719Z,6.30
2023-01-04T05:24:02.703Z,5.80
2023-01-04T05:25:02.696Z,5.50
2023-01-04T05:26:02.691Z,5.70
2023-01-04T05:27:02.684Z,5.90
2023-01-04T05:28:02.658Z,5.90
2023-01-04T05:29:02.650Z,6.60
2023-01-04T05:30:02.611Z,6.70
2023-01-04T05:31:02.610Z,6.00
2023-01-04T05:32:02.695Z,6.50
2023-01-04T05:33:02.576Z,5.50
2023-01-04T05:34:02.555Z,5.50
2023-01-04T05:35:02.548Z,6.00
2023-01-04T05:36:02.535Z,6.20
2023-01-04T05:37:02.518Z,6.10
2023-01-04T05:38:02.507Z,6.60
2023-01-04T05:39:02.491Z,5.80
2023-01-04T05:40:02.475Z,6.40
2023-01-04T05:41:02.457Z,5.90
2023-01-04T05:42:02.457Z,5.30
2023-01-04T05:43:02.429Z,6.30
2023-01-04T05:44:02.412Z,6.00
2023-01-04T05:45:02.402Z,6.10
2023-01-04T05:46:02.510Z,5.90
2023-01-04T05:47:02.385Z,6.30
2023-01-04T05:48:02.362Z,6.40
2023-01-04T05:49:02.345Z,5.50
2023-01-04T05:50:02.321Z,6.30
2023-01-04T05:51:02.320Z,5.90
2023-01-04T05:52:02.295Z,5.40
2023-01-04T05:53:02.283Z,5.70
2023-01-04T05:54:02.265Z,5.80
2023-01-04T05:55:02.256Z,6.20
2023-01-04T05:56:02.261Z,5.90
2023-01-04T05:57:02.227Z,6.10
2023-01-04T05:58:02.224Z,5.60
2023-01-04T05:59:02.198Z,6.20
2023-01-04T06:00:02.181Z,5.80
2023-01-04T06:01:02.167Z,5.50
2023-01-04T06:02:02.354Z,6.60
2023-01-04T06:03:02.264Z,5.70
2023-01-04T06:04:02.214Z,5.70
2023-01-04T06:05:02.109Z,5.60
2023-01-04T06:06:02.097Z,6.20
2023-01-04T06:07:02.080Z,5.60
2023-01-04T06:08:02.083Z,5.90
2023-01-04T06:09:02.051Z,5.80
2023-01-04T06:10:02.092Z,6.00
2023-01-04T06:11:02.039Z,6.20
2023-01-04T06:12:02.017Z,5.70
2023-01-04T06:13:02.000Z,6.50
2023-01-04T06:14:01.992Z,6.10
2023-01-04T06:15:01.961Z,6.20
2023-01-04T06:16:01.946Z,5.60
2023-01-04T06:17:02.032Z,6.30
2023-01-04T06:18:01.920Z,6.40
2023-01-04T06:19:01.904Z,5.90
2023-01-04T06:20:01.887Z,5.60
2023-01-04T06:21:01.877Z,6.50
2023-01-04T06:22:01.861Z,5.50
2023-01-04T06:23:01.846Z,5.70
2023-01-04T06:24:01.826Z,5.20
2023-01-04T06:25:01.826Z,5.90
2023-01-04T06:26:01.798Z,5.60
2023-01-04T06:27:01.814Z,5.60
2023-01-04T06:28:01.771Z,6.00
2023-01-04T06:29:01.775Z,5.90
2023-01-04T06:30:01.857Z,5.10
2023-01-04T06:31:01.836Z,6.20
2023-01-04T06:32:01.735Z,5.90
2023-01-04T06:33:01.719Z,5.70
2023-01-04T06:34:01.683Z,5.40
2023-01-04T06:35:01.672Z,5.50
2023-01-04T06:36:01.655Z,6.40
2023-01-04T06:37:01.641Z,6.30
2023-01-04T06:38:01.626Z,5.60
2023-01-04T06:39:01.612Z,5.70
2023-01-04T06:40:01.599Z,5.20
2023-01-04T06:41:01.591Z,5.40
2023-01-04T06:42:06.708Z,5.00
2023-01-04T06:43:01.554Z,6.30
2023-01-04T06:44:01.559Z,6.00
2023-01-04T06:45:01.532Z,5.50
2023-01-04T06:46:01.573Z,6.20
2023-01-04T06:47:01.496Z,5.50
2023-01-04T06:48:07.298Z,5.50
2023-01-04T06:49:01.468Z,6.00
2023-01-04T06:50:01.450Z,5.70
2023-01-04T06:51:01.439Z,5.50
2023-01-04T06:52:01.425Z,5.40
2023-01-04T06:53:01.409Z,5.90
2023-01-04T06:54:01.391Z,5.40
2023-01-04T06:55:01.384Z,5.60
2023-01-04T06:56:01.372Z,5.70
2023-01-04T06:57:01.352Z,6.10
2023-01-04T06:58:01.337Z,5.50
2023-01-04T06:59:01.328Z,5.70
2023-01-04T07:00:01.305Z,5.00
2023-01-04T07:01:01.349Z,5.50
2023-01-04T07:02:01.471Z,5.70
2023-01-04T07:03:14.920Z,5.50
2023-01-04T07:04:01.318Z,5.30
2023-01-04T07:05:01.394Z,5.80
2023-01-04T07:06:01.217Z,5.90
2023-01-04T07:07:01.205Z,6.20
2023-01-04T07:08:07.379Z,5.80
2023-01-04T07:09:01.176Z,5.80
2023-01-04T07:10:05.417Z,5.90
2023-01-04T07:11:01.147Z,5.40
2023-01-04T07:12:01.133Z,5.80
2023-01-04T07:13:01.120Z,5.50
2023-01-04T07:14:01.103Z,5.90
2023-01-04T07:15:01.091Z,5.70
2023-01-04T07:16:01.260Z,5.80
2023-01-04T07:17:01.080Z,5.00
2023-01-04T07:18:01.068Z,5.60
2023-01-04T07:19:01.031Z,5.90
2023-01-04T07:20:01.028Z,6.00
2023-01-04T07:21:01.013Z,5.60
2023-01-04T07:22:00.985Z,5.20
2023-01-04T07:23:00.972Z,5.80
2023-01-04T07:24:00.978Z,5.00
2023-01-04T07:25:01.005Z,5.50
2023-01-04T07:26:00.926Z,6.10
2023-01-04T07:27:00.930Z,5.40
2023-01-04T07:28:00.899Z,5.80
2023-01-04T07:29:00.893Z,5.60
2023-01-04T07:30:00.880Z,5.20
2023-01-04T07:31:01.037Z,6.00
2023-01-04T07:32:00.854Z,5.50
2023-01-04T07:33:00.831Z,4.80
2023-01-04T07:34:00.858Z,5.20
2023-01-04T07:35:00.812Z,5.60
2023-01-04T07:36:00.783Z,5.40
2023-01-04T07:37:00.788Z,5.40
2023-01-04T07:38:00.752Z,5.60
2023-01-04T07:39:00.741Z,5.40
2023-01-04T07:40:00.725Z,5.10
2023-01-04T07:41:00.718Z,5.50
2023-01-04T07:42:00.693Z,5.10
2023-01-04T07:43:00.694Z,5.10
2023-01-04T07:44:00.664Z,5.20
2023-01-04T07:45:00.749Z,4.60
2023-01-04T07:46:00.730Z,4.50
2023-01-04T07:47:00.621Z,5.40
2023-01-04T07:48:00.610Z,5.00
2023-01-04T07:49:00.600Z,5.60
2023-01-04T07:50:00.621Z,4.70
2023-01-04T07:51:00.569Z,4.80
2023-01-04T07:52:00.554Z,4.90
2023-01-04T07:53:00.535Z,4.40
2023-01-04T07:54:00.522Z,5.40
2023-01-04T07:55:00.509Z,5.00
2023-01-04T07:56:00.496Z,5.00
2023-01-04T07:57:00.478Z,4.80
2023-01-04T07:58:00.468Z,5.70
2023-01-04T07:59:00.446Z,5.10
2023-01-04T08:00:00.456Z,6.10
2023-01-04T08:01:00.420Z,5.00
2023-01-04T08:02:00.563Z,5.80
2023-01-04T08:03:00.565Z,5.80
2023-01-04T08:04:00.426Z,5.80
2023-01-04T08:05:00.660Z,5.70
2023-01-04T08:06:00.371Z,5.10
2023-01-04T08:07:00.340Z,5.50
2023-01-04T08:08:00.328Z,4.80
2023-01-04T08:09:00.315Z,5.10
2023-01-04T08:10:00.295Z,5.20
2023-01-04T08:11:00.273Z,5.50
2023-01-04T08:12:00.264Z,5.30
2023-01-04T08:13:00.249Z,5.80
2023-01-04T08:14:00.233Z,5.60
2023-01-04T08:15:00.217Z,5.50
2023-01-04T08:16:00.300Z,4.90
2023-01-04T08:17:00.192Z,5.40
2023-01-04T08:18:00.359Z,6.30
2023-01-04T08:19:00.159Z,5.70
2023-01-04T08:20:00.247Z,5.20
2023-01-04T08:21:00.138Z,5.60
2023-01-04T08:22:00.179Z,5.40
2023-01-04T08:23:00.161Z,5.60
2023-01-04T08:24:00.108Z,5.20
2023-01-04T08:25:00.111Z,5.30
2023-01-04T08:26:00.079Z,5.30
2023-01-04T08:27:00.054Z,4.90
2023-01-04T08:28:00.046Z,5.30
2023-01-04T08:29:00.029Z,6.10
2023-01-04T08:30:00.009Z,5.30
2023-01-04T08:31:00.054Z,5.20
2023-01-04T08:31:59.982Z,5.70
2023-01-04T08:32:59.967Z,5.30
2023-01-04T08:33:59.959Z,6.20
2023-01-04T08:34:59.934Z,5.10
2023-01-04T08:35:59.924Z,5.60
2023-01-04T08:36:59.910Z,5.30
2023-01-04T08:38:28.523Z,5.30
2023-01-04T08:39:01.677Z,5.60
2023-01-04T08:39:59.867Z,4.60
2023-01-04T08:41:11.293Z,5.20
2023-01-04T08:42:09.912Z,5.60
2023-01-04T08:42:59.821Z,6.40
2023-01-04T08:43:59.813Z,5.40
2023-01-04T08:45:00.267Z,5.20
2023-01-04T08:45:59.801Z,5.40
2023-01-04T08:46:59.880Z,6.50
2023-01-04T08:47:59.753Z,5.80
2023-01-04T08:48:59.736Z,5.60
2023-01-04T08:50:03.259Z,5.90
2023-01-04T08:50:59.709Z,5.80
2023-01-04T08:51:59.710Z,5.40
2023-01-04T08:52:59.680Z,5.80
2023-01-04T08:53:59.692Z,5.90
2023-01-04T08:54:59.653Z,5.80
2023-01-04T08:55:59.675Z,5.40
2023-01-04T08:56:59.625Z,5.30
2023-01-04T08:57:59.614Z,5.10
2023-01-04T08:58:59.595Z,5.80
2023-01-04T08:59:59.585Z,5.10
2023-01-04T09:00:59.568Z,5.60
2023-01-04T09:02:05.272Z,5.90
2023-01-04T09:02:59.761Z,5.60
2023-01-04T09:03:59.555Z,5.40
2023-01-04T09:04:59.672Z,5.60
2023-01-04T09:05:59.502Z,5.90
2023-01-04T09:06:59.488Z,6.00
2023-01-04T09:07:59.479Z,5.50
2023-01-04T09:08:59.468Z,5.80
2023-01-04T09:09:59.472Z,5.50
2023-01-04T09:10:59.429Z,5.90
2023-01-04T09:11:59.425Z,6.10
2023-01-04T09:12:59.405Z,5.60
2023-01-04T09:14:06.692Z,6.10
2023-01-04T09:14:59.372Z,5.90
2023-01-04T09:15:59.476Z,6.80
2023-01-04T09:16:59.351Z,6.00
2023-01-04T09:18:30.552Z,6.00
2023-01-04T09:18:59.323Z,5.60
2023-01-04T09:19:59.312Z,5.70
2023-01-04T09:20:59.291Z,6.40
2023-01-04T09:21:59.440Z,6.00
2023-01-04T09:22:59.279Z,6.40
2023-01-04T09:23:59.364Z,6.60
2023-01-04T09:24:59.237Z,6.80
2023-01-04T09:26:01.244Z,6.70
2023-01-04T09:26:59.211Z,6.40
2023-01-04T09:27:59.211Z,6.60
2023-01-04T09:28:59.179Z,6.60
2023-01-04T09:29:59.172Z,6.60
2023-01-04T09:30:59.179Z,7.20
2023-01-04T09:31:59.227Z,6.60
2023-01-04T09:32:59.125Z,6.00
2023-01-04T09:34:17.031Z,7.20
2023-01-04T09:34:59.100Z,6.30
2023-01-04T09:35:59.088Z,6.60
2023-01-04T09:36:59.077Z,7.40
2023-01-04T09:37:59.061Z,6.60
2023-01-04T09:38:59.046Z,7.10
2023-01-04T09:39:59.083Z,7.40
2023-01-04T09:40:59.016Z,7.10
2023-01-04T09:41:59.085Z,7.00
2023-01-04T09:43:21.767Z,7.00
2023-01-04T09:43:58.981Z,7.00
2023-01-04T09:45:25.800Z,6.50
2023-01-04T09:45:58.978Z,6.30
2023-01-04T09:46:59.042Z,6.40
2023-01-04T09:47:58.924Z,6.80
2023-01-04T09:48:58.907Z,7.20
2023-01-04T09:49:58.894Z,6.60
2023-01-04T09:50:58.901Z,6.60
2023-01-04T09:51:58.869Z,6.30
2023-01-04T09:52:58.856Z,6.90
2023-01-04T09:53:58.839Z,6.60
2023-01-04T09:55:02.799Z,7.00
2023-01-04T09:55:58.814Z,7.40
2023-01-04T09:56:58.798Z,7.10
2023-01-04T09:57:58.804Z,6.30
2023-01-04T09:58:58.773Z,7.00
2023-01-04T09:59:58.757Z,7.30
2023-01-04T10:00:58.754Z,7.10
2023-01-04T10:01:58.950Z,7.10
2023-01-04T10:02:58.897Z,7.50
2023-01-04T10:03:58.705Z,7.20
2023-01-04T10:04:58.688Z,6.50
2023-01-04T10:05:58.675Z,7.60
2023-01-04T10:07:04.694Z,7.10
2023-01-04T10:07:58.649Z,6.80
2023-01-04T10:08:58.634Z,7.00
2023-01-04T10:09:58.621Z,7.20
2023-01-04T10:10:58.609Z,6.60
2023-01-04T10:11:58.602Z,7.00
2023-01-04T10:13:00.168Z,6.60
2023-01-04T10:13:58.604Z,7.00
2023-01-04T10:14:58.551Z,6.80
2023-01-04T10:15:58.629Z,7.00
2023-01-04T10:17:12.606Z,6.80
2023-01-04T10:19:43.508Z,7.50
2023-01-04T10:19:50.379Z,7.10
2023-01-04T10:21:58.492Z,7.10
2023-01-04T10:22:58.444Z,6.80
2023-01-04T10:23:58.432Z,7.10
2023-01-04T10:24:58.420Z,6.90
2023-01-04T10:25:58.405Z,7.30
2023-01-04T10:26:58.393Z,7.10
2023-01-04T10:27:58.385Z,6.90
2023-01-04T10:28:58.367Z,7.30
2023-01-04T10:29:58.574Z,6.40
2023-01-04T10:30:58.340Z,6.80
2023-01-04T10:31:58.414Z,7.00
2023-01-04T10:32:58.310Z,6.90
2023-01-04T10:33:58.299Z,7.30
2023-01-04T10:34:58.281Z,7.50
2023-01-04T10:35:58.277Z,7.00
2023-01-04T10:36:58.255Z,7.00
2023-01-04T10:37:58.243Z,7.10
2023-01-04T10:38:58.227Z,6.50
2023-01-04T10:39:58.222Z,6.70
2023-01-04T10:40:58.201Z,7.30
2023-01-04T10:41:58.195Z,7.30
2023-01-04T10:42:58.179Z,6.60
2023-01-04T10:44:11.461Z,7.20
2023-01-04T10:45:01.948Z,6.90
2023-01-04T10:45:58.161Z,7.00
2023-01-04T10:46:58.287Z,7.60
2023-01-04T10:47:58.113Z,6.60
2023-01-04T10:48:58.098Z,6.70
2023-01-04T10:49:58.090Z,7.00
2023-01-04T10:51:02.077Z,7.40
2023-01-04T10:51:58.059Z,6.30
2023-01-04T10:52:58.040Z,7.40
2023-01-04T10:53:58.030Z,7.60
2023-01-04T10:54:58.022Z,6.70
2023-01-04T10:56:23.982Z,7.80
2023-01-04T10:57:00.197Z,6.50
2023-01-04T10:57:57.985Z,6.50
2023-01-04T10:58:57.968Z,6.50
2023-01-04T10:59:57.953Z,7.20
2023-01-04T11:00:58.013Z,7.40
2023-01-04T11:01:58.170Z,6.20
2023-01-04T11:03:02.137Z,6.40
2023-01-04T11:03:57.898Z,6.80
2023-01-04T11:04:57.878Z,6.70
2023-01-04T11:05:57.879Z,6.40
2023-01-04T11:06:57.857Z,6.60
2023-01-04T11:07:57.850Z,7.20
2023-01-04T11:08:57.879Z,6.60
2023-01-04T11:09:57.818Z,6.00
2023-01-04T11:10:57.807Z,5.50
2023-01-04T11:11:57.818Z,6.50
2023-01-04T11:12:57.781Z,6.60
2023-01-04T11:13:57.766Z,6.40
2023-01-04T11:14:57.756Z,6.20
2023-01-04T11:15:57.742Z,6.30
2023-01-04T11:16:57.791Z,6.00
2023-01-04T11:17:57.736Z,5.80
2023-01-04T11:18:57.703Z,6.10
2023-01-04T11:19:57.685Z,5.40
2023-01-04T11:20:57.675Z,5.90
2023-01-04T11:21:57.665Z,5.70
2023-01-04T11:22:57.709Z,5.80
2023-01-04T11:24:08.313Z,5.90
2023-01-04T11:25:57.612Z,5.50
2023-01-04T11:26:57.590Z,5.70
2023-01-04T11:27:57.590Z,5.60
2023-01-04T11:28:57.572Z,6.10
2023-01-04T11:29:57.552Z,6.00
2023-01-04T11:30:57.540Z,5.50
2023-01-04T11:31:57.566Z,5.10
2023-01-04T11:32:57.514Z,6.20
2023-01-04T11:33:57.519Z,5.60
2023-01-04T11:34:57.490Z,4.80
2023-01-04T11:35:57.476Z,5.20
2023-01-04T11:36:57.458Z,5.60
2023-01-04T11:37:57.448Z,6.40
2023-01-04T11:38:57.431Z,4.60
2023-01-04T11:39:57.425Z,4.80
2023-01-04T11:40:57.406Z,4.90
2023-01-04T11:42:02.535Z,4.80
2023-01-04T11:42:57.392Z,4.60
2023-01-04T11:43:57.373Z,5.10
2023-01-04T11:44:57.354Z,4.40
2023-01-04T11:45:57.486Z,4.40
2023-01-04T11:46:57.351Z,4.60
2023-01-04T11:47:57.316Z,3.90
2023-01-04T11:48:57.301Z,4.40
2023-01-04T11:49:57.308Z,4.40
2023-01-04T11:50:57.273Z,4.30
2023-01-04T11:51:57.264Z,4.00
2023-01-04T11:52:57.248Z,4.20
2023-01-04T11:53:57.270Z,4.00
2023-01-04T11:54:57.223Z,4.30
2023-01-04T11:55:57.216Z,4.10
2023-01-04T11:56:57.195Z,3.90
2023-01-04T11:57:57.186Z,4.40
2023-01-04T11:58:57.168Z,4.20
2023-01-04T11:59:57.160Z,4.00
2023-01-04T12:00:57.144Z,4.30
2023-01-04T12:01:57.260Z,4.60
2023-01-04T12:03:04.633Z,3.90
2023-01-04T12:03:57.105Z,3.60
2023-01-04T12:04:57.094Z,3.80
2023-01-04T12:05:57.102Z,4.20
2023-01-04T12:06:57.066Z,3.40
2023-01-04T12:07:57.056Z,3.50
2023-01-04T12:08:57.041Z,3.50
2023-01-04T12:09:57.025Z,3.70
2023-01-04T12:10:57.064Z,3.40
2023-01-04T12:11:57.007Z,3.40
2023-01-04T12:12:56.991Z,4.10
2023-01-04T12:13:56.970Z,4.00
2023-01-04T12:14:56.962Z,3.50
2023-01-04T12:15:56.952Z,3.70
2023-01-04T12:16:56.946Z,3.80
2023-01-04T12:17:56.926Z,3.70
2023-01-04T12:18:56.958Z,4.00
2023-01-04T12:19:56.893Z,3.50
2023-01-04T12:20:56.884Z,3.40
2023-01-04T12:21:56.885Z,3.70
2023-01-04T12:22:56.864Z,3.60
2023-01-04T12:23:56.840Z,3.90
2023-01-04T12:25:00.653Z,3.50
2023-01-04T12:25:56.820Z,3.50
2023-01-04T12:26:56.807Z,3.40
2023-01-04T12:27:56.825Z,3.70
2023-01-04T12:28:56.776Z,3.40
2023-01-04T12:29:56.777Z,4.10
2023-01-04T12:30:56.767Z,3.60
2023-01-04T12:31:56.736Z,3.40
2023-01-04T12:32:56.727Z,3.50
2023-01-04T12:33:56.717Z,3.40
2023-01-04T12:34:56.706Z,3.80
2023-01-04T12:35:56.683Z,3.30
2023-01-04T12:37:01.401Z,3.80
2023-01-04T12:37:56.689Z,4.00
2023-01-04T12:38:56.652Z,3.70
2023-01-04T12:39:56.642Z,3.80
2023-01-04T12:40:56.624Z,4.20
2023-01-04T12:41:56.604Z,3.90
2023-01-04T12:42:56.595Z,3.40
2023-01-04T12:43:56.580Z,3.40
2023-01-04T12:44:56.569Z,4.40
2023-01-04T12:45:56.610Z,4.10
2023-01-04T12:46:56.545Z,4.20
2023-01-04T12:47:56.535Z,4.00
2023-01-04T12:48:56.531Z,4.10
2023-01-04T12:49:56.506Z,3.70
2023-01-04T12:51:07.359Z,3.50
2023-01-04T12:52:20.920Z,3.70
2023-01-04T12:53:29.484Z,4.10
2023-01-04T12:53:56.469Z,3.70
2023-01-04T12:54:56.440Z,3.30
2023-01-04T12:55:56.434Z,4.10
2023-01-04T12:56:56.414Z,4.10
2023-01-04T12:57:56.404Z,4.20
2023-01-04T12:59:24.767Z,4.40
2023-01-04T12:59:56.370Z,4.10
2023-01-04T13:00:56.406Z,3.60
2023-01-04T13:01:56.488Z,3.70
2023-01-04T13:02:56.529Z,3.80
2023-01-04T13:04:02.581Z,3.60
2023-01-04T13:05:25.674Z,3.90
2023-01-04T13:05:57.560Z,4.10
2023-01-04T13:06:56.285Z,3.90
2023-01-04T13:07:56.270Z,3.30
2023-01-04T13:08:56.260Z,3.70
2023-01-04T13:09:56.259Z,4.10
2023-01-04T13:10:56.238Z,3.60
2023-01-04T13:11:56.218Z,3.60
2023-01-04T13:12:56.212Z,4.10
2023-01-04T13:13:56.191Z,4.20
2023-01-04T13:14:56.183Z,4.20
2023-01-04T13:15:56.172Z,3.60
2023-01-04T13:16:56.211Z,3.70
2023-01-04T13:17:56.141Z,3.70
2023-01-04T13:18:56.180Z,3.50
2023-01-04T13:19:56.117Z,3.50
2023-01-04T13:20:56.106Z,4.00
2023-01-04T13:21:56.089Z,3.70